KSNK/SNK METAR and TAF weather

Enter ICAO airport designator
Station Type Date Time Source
KSNK METAR 2019/08/24 09:55 UTC NOAA

KSNK 240955Z AUTO 00000KT 10SM CLR 22/21 A3003 RMK AO2 LTG DSNT S AND SW T02150214


Station Type Date Time Source
KSNK Decoded METAR 2019/08/24 09:55 UTC NOAA

Station name not available
Aug 24, 2019 - 05:55 AM EDT / 2019.08.24 0955 UTC
Wind: Calm:0
Visibility: 10 mile(s):0
Sky conditions: clear
Weather: Lightning observed
Temperature: 70.7 F (21.5 C)
Dew Point: 70.5 F (21.4 C)
Relative Humidity: 99%
Pressure (altimeter): 30.03 in. Hg (1016 hPa)
ob: KSNK 240955Z AUTO 00000KT 10SM CLR 22/21 A3003 RMK AO2 LTG DSNT S AND SW T02150214
cycle: 10

Station Type Date Time Source
KSNK TAF UTC NOAA

Error!

Example: see airport list